• Join FlightAware (Why Join?)
  • Login
  • US Flag 
03:55AM EDT


 

Airport Tracker/Info


-or-


 

Live Flight TrackerFlight Track Log ✈ SKW6492 ✈ 10-Jul-2014 ✈ KDEN - KCOD

Flight Track Log - Related Links

Times and Time Zones

All times are in EDT time to prevent confusion due to time zone crossing. See the SKW6492 flight status page for this flight to view local times or setup timezone preferences in your user account.

Time Position Orientation Groundspeed Altitude Reporting Facility
EDT Latitude Longitude Course Direction KTS MPH feet Rate Location/Type
10:10PM 39.8000 -104.7000 346° North 221 254 7,500  Level Denver TRACON
10:11PM 39.8333 -104.7500 311° West 254 292 8,800 1,380 Climbing Denver TRACON
10:12PM 39.8914 -104.7542 357° North 285 328 9,600 1,260 Climbing Denver Center
10:13PM 40.2787 -104.8052 347° North  Level FlightAware Approximate
10:13PM 39.9853 -104.7650 355° North 311 358 11,000  Level Denver Center
10:14PM 40.3860 -104.8398 346° North  Level FlightAware Approximate
10:14PM 40.0800 -104.7756 355° North 336 387 12,400  Level Denver Center
10:15PM 40.4932 -104.8755 346° North  Level FlightAware Approximate
10:15PM 40.1881 -104.7875 355° North 359 413 13,800  Level Denver Center
10:16PM 40.2897 -104.7989 355° North 366 421 15,700 1,800 Climbing Denver Center
10:17PM 40.3878 -104.8089 356° North 357 411 17,600 1,680 Climbing Denver Center
10:18PM 40.4939 -104.8219 355° North 355 409 19,200 1,440 Climbing Denver Center
10:19PM 40.5922 -104.8325 355° North 356 410 20,600 1,140 Climbing Denver Center
10:20PM 40.6881 -104.8625 347° North 352 405 21,600 960 Climbing Denver Center
10:21PM 40.7692 -104.9442 323° Northwest 366 421 22,700 1,020 Climbing Denver Center
10:22PM 40.8500 -105.0236 323° Northwest 366 421 23,800 780 Climbing Denver Center
10:23PM 40.9278 -105.1025 323° Northwest 359 413 24,400 600 Climbing Denver Center
10:24PM 41.0225 -105.1989 322° Northwest 357 411 25,100 540 Climbing Denver Center
10:25PM 41.1042 -105.2833 322° Northwest 370 426 25,600 540 Climbing Denver Center
10:26PM 41.1881 -105.3683 323° Northwest 377 434 26,300 660 Climbing Denver Center
10:27PM 41.2722 -105.4542 323° Northwest 382 440 27,000 660 Climbing Denver Center
10:28PM 41.3569 -105.5422 322° Northwest 383 441 27,700 480 Climbing Denver Center
10:29PM 41.4431 -105.6306 322° Northwest 386 444 28,000 120 Climbing Denver Center
10:30PM 41.5519 -105.7428 322° Northwest 406 467 28,000  Level Denver Center
10:31PM 41.6422 -105.8367 322° Northwest 424 488 28,000  Level Denver Center
10:32PM 41.7333 -105.9300 323° Northwest 429 494 28,000  Level Denver Center
10:33PM 41.8406 -106.0422 322° Northwest 435 501 28,000  Level Denver Center
10:34PM 41.9322 -106.1403 322° Northwest 437 503 28,000  Level Denver Center
10:35PM 42.0397 -106.2539 322° Northwest 439 505 28,000  Level Denver Center
10:37PM 42.1322 -106.3514 322° Northwest 440 506 28,000  Level Denver Center
10:38PM 42.2394 -106.4644 322° Northwest 440 506 28,000  Level Denver Center
10:39PM 42.3311 -106.5631 322° Northwest 441 507 28,000  Level Denver Center
10:40PM 42.4383 -106.6783 322° Northwest 442 509 28,000  Level Denver Center
10:41PM 42.5278 -106.7756 321° Northwest 436 502 28,000  Level Denver Center
10:42PM 42.6294 -106.8836 322° Northwest 426 490 28,000  Level Denver Center
10:43PM 42.7200 -106.9836 321° Northwest 423 487 28,000  Level Denver Center
10:44PM 42.8108 -107.0825 321° Northwest 422 486 28,000  Level Denver Center
10:45PM 42.9019 -107.1822 321° Northwest 421 484 28,000  Level Denver Center
10:46PM 42.9892 -107.2894 318° Northwest 421 484 28,000  Level Denver Center
10:47PM 43.0817 -107.4344 311° West 422 486 28,000  Level Denver Center
10:48PM 43.1542 -107.5608 308° West 422 486 28,000  Level Denver Center
10:49PM 43.2489 -107.6600 323° Northwest 426 490 28,000  Level Denver Center
10:50PM 43.3450 -107.7586 323° Northwest 429 494 28,000  Level Denver Center
10:51PM 43.4400 -107.8581 323° Northwest 430 495 28,000  Level Denver Center
10:52PM 43.5931 -108.0164 323° Northwest 430 495 28,000 -60 Level Salt Lake Center
10:53PM 43.6886 -108.1183 322° Northwest 432 497 27,900 -1,440 Descending Salt Lake Center
10:54PM 43.7861 -108.2208 323° Northwest 435 501 25,100 -2,940 Descending Salt Lake Center
10:56PM 43.8803 -108.3250 321° Northwest 437 503 21,900 -3,120 Descending Salt Lake Center
10:57PM 43.9675 -108.4156 323° Northwest 409 471 18,800 -3,000 Descending Salt Lake Center
10:58PM 44.0500 -108.5058 322° Northwest 392 451 15,800 -3,000 Descending Salt Lake Center
10:59PM 44.1311 -108.5919 323° Northwest 381 438 12,700 -2,820 Descending Salt Lake Center
11:00PM 44.2092 -108.6758 322° Northwest 370 426 10,100 -1,320 Descending Salt Lake Center
11:01PM 44.2928 -108.7650 323° Northwest 345 397 10,000 -60 Descending Salt Lake Center
11:02PM 44.3572 -108.8356 322° Northwest 320 368 10,000  Level Salt Lake Center